createdAt,value
2017-12-08T00:00:03.594Z,5.69
2017-12-08T00:00:07.613Z,5.6
2017-12-08T00:00:11.851Z,5.73
2017-12-08T00:00:48.185Z,5.65
2017-12-08T00:00:52.428Z,5.73
2017-12-08T00:00:56.464Z,5.74
2017-12-08T00:01:00.828Z,5.78
2017-12-08T00:01:04.788Z,5.66
2017-12-08T00:01:09.142Z,5.77
2017-12-08T00:01:13.489Z,5.73
2017-12-08T00:01:17.526Z,5.74
2017-12-08T00:01:21.874Z,5.75
2017-12-08T00:01:26.218Z,5.74
2017-12-08T00:01:30.472Z,5.78
2017-12-08T00:01:34.613Z,5.69
2017-12-08T00:01:38.844Z,5.7
2017-12-08T00:01:42.979Z,5.67
2017-12-08T00:01:47.233Z,5.7
2017-12-08T00:01:51.475Z,5.73
2017-12-08T00:01:55.617Z,5.74
2017-12-08T00:02:00.018Z,5.73
2017-12-08T00:02:04.366Z,5.8
2017-12-08T00:02:08.205Z,5.73
2017-12-08T00:02:12.448Z,5.7
2017-12-08T00:02:16.470Z,5.75
2017-12-08T00:02:20.812Z,5.78
2017-12-08T00:02:25.169Z,5.84
2017-12-08T00:02:29.509Z,5.73
2017-12-08T00:02:33.531Z,5.75
2017-12-08T00:02:37.788Z,5.74
2017-12-08T00:02:42.038Z,5.75
2017-12-08T00:02:46.194Z,5.7
2017-12-08T00:02:50.416Z,5.75
2017-12-08T00:02:54.441Z,5.7
2017-12-08T00:02:58.681Z,5.78
2017-12-08T00:03:03.032Z,5.75
2017-12-08T00:03:07.163Z,5.73
2017-12-08T00:03:11.522Z,5.7
2017-12-08T00:03:15.754Z,5.78
2017-12-08T00:03:20.045Z,5.75
2017-12-08T00:03:24.279Z,5.77
2017-12-08T00:03:28.633Z,5.73
2017-12-08T00:03:33.038Z,5.78
2017-12-08T00:03:37.264Z,5.75
2017-12-08T00:03:41.398Z,5.7
2017-12-08T00:03:45.541Z,5.77
2017-12-08T00:03:49.684Z,5.75
2017-12-08T00:03:53.721Z,5.75
2017-12-08T00:03:57.954Z,5.78
2017-12-08T00:04:02.647Z,5.75
2017-12-08T00:04:06.586Z,5.8
2017-12-08T00:04:10.517Z,5.73
2017-12-08T00:04:14.756Z,5.8
2017-12-08T00:04:18.996Z,5.73
2017-12-08T00:04:23.357Z,5.78
2017-12-08T00:04:27.698Z,5.77
2017-12-08T00:04:31.936Z,5.84
2017-12-08T00:04:36.269Z,5.81
2017-12-08T00:04:40.505Z,5.74
2017-12-08T00:04:44.894Z,5.77
2017-12-08T00:04:49.133Z,5.74
2017-12-08T00:04:53.474Z,5.74
2017-12-08T00:04:57.524Z,5.75
2017-12-08T00:05:01.872Z,5.8
2017-12-08T00:05:06.226Z,5.84
2017-12-08T00:05:10.247Z,5.74
2017-12-08T00:05:14.489Z,5.75
2017-12-08T00:05:18.718Z,5.78
2017-12-08T00:05:23.059Z,5.81
2017-12-08T00:05:27.301Z,5.77
2017-12-08T00:05:31.495Z,5.73
2017-12-08T00:05:35.742Z,5.78
2017-12-08T00:05:39.862Z,5.74
2017-12-08T00:05:43.986Z,5.8
2017-12-08T00:05:48.213Z,5.8
2017-12-08T00:05:52.441Z,5.78
2017-12-08T00:05:56.574Z,5.77
2017-12-08T00:06:00.707Z,5.81
2017-12-08T00:06:04.961Z,5.81
2017-12-08T00:06:09.110Z,5.75
2017-12-08T00:06:13.244Z,5.75
2017-12-08T00:06:17.386Z,5.77
2017-12-08T00:06:21.734Z,5.74
2017-12-08T00:06:26.100Z,5.81
2017-12-08T00:06:30.444Z,5.8
2017-12-08T00:06:34.679Z,5.78
2017-12-08T00:06:38.927Z,5.74
2017-12-08T00:06:43.158Z,5.75
2017-12-08T00:06:47.492Z,5.73
2017-12-08T00:06:51.728Z,5.73
2017-12-08T00:06:55.738Z,5.7
2017-12-08T00:07:00.148Z,5.74
2017-12-08T00:07:04.657Z,5.8
2017-12-08T00:07:08.898Z,5.78
2017-12-08T00:07:13.036Z,5.74
2017-12-08T00:07:17.280Z,5.83
2017-12-08T00:07:21.626Z,5.78
2017-12-08T00:07:25.760Z,5.75
2017-12-08T00:07:30.120Z,5.84
2017-12-08T00:07:34.418Z,5.8
2017-12-08T00:07:38.826Z,5.74
2017-12-08T00:07:43.185Z,5.78
2017-12-08T00:07:47.330Z,5.74
2017-12-08T00:07:51.569Z,5.8
2017-12-08T00:07:55.812Z,5.77
2017-12-08T00:08:00.060Z,5.78
2017-12-08T00:08:04.202Z,5.8
2017-12-08T00:08:08.227Z,5.75
2017-12-08T00:08:12.362Z,5.8
2017-12-08T00:08:16.611Z,5.77
2017-12-08T00:08:20.860Z,5.74
2017-12-08T00:08:25.225Z,5.8
2017-12-08T00:08:29.567Z,5.8
2017-12-08T00:08:33.912Z,5.77
2017-12-08T00:08:38.268Z,5.74
2017-12-08T00:08:42.516Z,5.75
2017-12-08T00:08:46.876Z,5.78
2017-12-08T00:08:51.107Z,5.83
2017-12-08T00:08:55.352Z,5.75
2017-12-08T00:08:59.696Z,5.77
2017-12-08T00:09:04.097Z,5.78
2017-12-08T00:09:08.444Z,5.7
2017-12-08T00:09:12.672Z,5.77
2017-12-08T00:09:16.709Z,5.77
2017-12-08T00:09:21.107Z,5.78
2017-12-08T00:09:25.348Z,5.77
2017-12-08T00:09:29.584Z,5.78
2017-12-08T00:09:33.832Z,5.74
2017-12-08T00:09:38.118Z,5.77
2017-12-08T00:09:42.350Z,5.75
2017-12-08T00:09:46.583Z,5.78
2017-12-08T00:09:50.912Z,5.74
2017-12-08T00:09:55.247Z,5.77
2017-12-08T00:09:59.606Z,5.77
2017-12-08T00:10:03.948Z,5.75
2017-12-08T00:10:08.201Z,5.7
2017-12-08T00:10:12.344Z,5.75
2017-12-08T00:10:16.492Z,5.77
2017-12-08T00:10:20.648Z,5.74
2017-12-08T00:10:24.890Z,5.77
2017-12-08T00:10:29.241Z,5.73
2017-12-08T00:10:33.478Z,5.74
2017-12-08T00:10:37.615Z,5.74
2017-12-08T00:10:41.868Z,5.8
2017-12-08T00:10:46.221Z,5.67
2017-12-08T00:10:50.580Z,5.77
2017-12-08T00:10:54.816Z,5.67
2017-12-08T00:10:58.853Z,5.77
2017-12-08T00:11:03.196Z,5.7
2017-12-08T00:11:07.428Z,5.75
2017-12-08T00:11:11.552Z,5.7
2017-12-08T00:11:15.684Z,5.73
2017-12-08T00:11:19.937Z,5.74
2017-12-08T00:11:24.274Z,5.69
2017-12-08T00:11:28.400Z,5.73
2017-12-08T00:11:32.524Z,5.7
2017-12-08T00:11:36.775Z,5.78
2017-12-08T00:11:40.911Z,5.74
2017-12-08T00:11:45.259Z,5.77
2017-12-08T00:11:49.395Z,5.8
2017-12-08T00:11:53.744Z,5.74
2017-12-08T00:11:57.991Z,5.75
2017-12-08T00:12:02.473Z,5.65
2017-12-08T00:12:06.828Z,5.78
2017-12-08T00:12:11.186Z,5.73
2017-12-08T00:12:15.428Z,5.74
2017-12-08T00:12:19.579Z,5.73
2017-12-08T00:12:23.822Z,5.74
2017-12-08T00:12:27.963Z,5.73
2017-12-08T00:12:32.314Z,5.69
2017-12-08T00:12:36.553Z,5.7
2017-12-08T00:12:40.879Z,5.78
2017-12-08T00:12:45.104Z,5.73
2017-12-08T00:12:49.461Z,5.69
2017-12-08T00:12:53.808Z,5.73
2017-12-08T00:12:57.846Z,5.69
2017-12-08T00:13:02.450Z,5.77
2017-12-08T00:13:06.596Z,5.75
2017-12-08T00:13:10.842Z,5.75
2017-12-08T00:13:14.879Z,5.78
2017-12-08T00:13:19.110Z,5.69
2017-12-08T00:13:23.258Z,5.73
2017-12-08T00:13:27.615Z,5.73
2017-12-08T00:13:31.640Z,5.73
2017-12-08T00:13:35.997Z,5.74
2017-12-08T00:13:40.291Z,5.6
2017-12-08T00:13:44.639Z,5.65
2017-12-08T00:13:48.773Z,5.63
2017-12-08T00:13:53.118Z,5.74
2017-12-08T00:13:57.348Z,5.65
2017-12-08T00:14:01.581Z,5.67
2017-12-08T00:14:05.921Z,5.66
2017-12-08T00:14:10.281Z,5.7
2017-12-08T00:14:14.632Z,5.62
2017-12-08T00:14:18.983Z,5.73
2017-12-08T00:14:23.334Z,5.65
2017-12-08T00:14:27.687Z,5.63
2017-12-08T00:14:32.045Z,5.59
2017-12-08T00:14:36.177Z,5.62
2017-12-08T00:14:40.419Z,5.66
2017-12-08T00:14:44.668Z,5.73
2017-12-08T00:14:48.955Z,5.58
2017-12-08T00:14:53.300Z,5.66
2017-12-08T00:14:57.434Z,5.67
2017-12-08T00:15:01.789Z,5.66
2017-12-08T00:15:06.051Z,5.62
2017-12-08T00:15:10.308Z,5.59
2017-12-08T00:15:14.450Z,5.66
2017-12-08T00:15:18.690Z,5.66
2017-12-08T00:15:23.040Z,5.65
2017-12-08T00:15:27.164Z,5.66
2017-12-08T00:15:31.296Z,5.67
2017-12-08T00:15:35.433Z,5.59
2017-12-08T00:15:39.547Z,5.59
2017-12-08T00:15:43.890Z,5.65
2017-12-08T00:15:48.236Z,5.65
2017-12-08T00:15:52.478Z,5.65
2017-12-08T00:15:56.723Z,5.67
2017-12-08T00:16:00.978Z,5.63
2017-12-08T00:16:05.220Z,5.62
2017-12-08T00:16:09.356Z,5.59
2017-12-08T00:16:13.603Z,5.62
2017-12-08T00:16:17.757Z,5.59
2017-12-08T00:16:21.997Z,5.62
2017-12-08T00:16:26.235Z,5.59
2017-12-08T00:16:30.485Z,5.6
2017-12-08T00:16:34.612Z,5.66
2017-12-08T00:16:38.850Z,5.59
2017-12-08T00:16:43.092Z,5.6
2017-12-08T00:16:47.508Z,5.6
2017-12-08T00:16:51.743Z,5.6
2017-12-08T00:16:55.985Z,5.6
2017-12-08T00:17:00.118Z,5.65
2017-12-08T00:17:04.814Z,5.55
2017-12-08T00:17:09.163Z,5.6
2017-12-08T00:17:13.418Z,5.59
2017-12-08T00:17:17.776Z,5.63
2017-12-08T00:17:22.020Z,5.59
2017-12-08T00:17:26.169Z,5.58
2017-12-08T00:17:30.294Z,5.56
2017-12-08T00:17:34.633Z,5.59
2017-12-08T00:17:38.778Z,5.56
2017-12-08T00:17:42.915Z,5.6
2017-12-08T00:17:47.269Z,5.56
2017-12-08T00:17:51.504Z,5.62
2017-12-08T00:17:55.632Z,5.56
2017-12-08T00:17:59.867Z,5.63
2017-12-08T00:18:04.098Z,5.59
2017-12-08T00:18:08.343Z,5.52
2017-12-08T00:18:12.689Z,5.66
2017-12-08T00:18:16.831Z,5.6
2017-12-08T00:18:21.235Z,5.49
2017-12-08T00:18:25.484Z,5.55
2017-12-08T00:18:29.820Z,5.59
2017-12-08T00:18:34.166Z,5.62
2017-12-08T00:18:38.293Z,5.65
2017-12-08T00:18:42.646Z,5.59
2017-12-08T00:18:46.778Z,5.55
2017-12-08T00:18:51.122Z,5.58
2017-12-08T00:18:55.363Z,5.6
2017-12-08T00:18:59.603Z,5.59
2017-12-08T00:19:03.997Z,5.62
2017-12-08T00:19:08.239Z,5.56
2017-12-08T00:19:12.385Z,5.55
2017-12-08T00:19:16.600Z,5.56
2017-12-08T00:19:20.954Z,5.59
2017-12-08T00:19:25.190Z,5.6
2017-12-08T00:19:29.548Z,5.52
2017-12-08T00:19:33.901Z,5.51
2017-12-08T00:19:37.825Z,5.56
2017-12-08T00:19:42.175Z,5.49
2017-12-08T00:19:46.413Z,5.52
2017-12-08T00:19:50.828Z,5.56
2017-12-08T00:19:55.077Z,5.56
2017-12-08T00:19:59.220Z,5.55
2017-12-08T00:20:03.559Z,5.58
2017-12-08T00:20:07.809Z,5.49
2017-12-08T00:20:12.049Z,5.52
2017-12-08T00:20:16.413Z,5.55
2017-12-08T00:20:20.790Z,5.49
2017-12-08T00:20:25.029Z,5.55
2017-12-08T00:20:28.984Z,5.51
2017-12-08T00:20:33.232Z,5.51
2017-12-08T00:20:37.482Z,5.49
2017-12-08T00:20:41.725Z,5.47
2017-12-08T00:20:46.070Z,5.51
2017-12-08T00:20:50.221Z,5.49
2017-12-08T00:20:54.360Z,5.45
2017-12-08T00:20:58.507Z,5.48
2017-12-08T00:21:02.628Z,5.47
2017-12-08T00:21:06.973Z,5.45
2017-12-08T00:21:11.231Z,5.52
2017-12-08T00:21:15.477Z,5.58
2017-12-08T00:21:19.815Z,5.45
2017-12-08T00:21:24.065Z,5.45
2017-12-08T00:21:28.424Z,5.48
2017-12-08T00:21:32.681Z,5.45
2017-12-08T00:21:36.818Z,5.48
2017-12-08T00:21:41.184Z,5.44
2017-12-08T00:21:45.428Z,5.48
2017-12-08T00:21:49.664Z,5.45
2017-12-08T00:21:54.005Z,5.42
2017-12-08T00:21:58.267Z,5.47
2017-12-08T00:22:02.628Z,5.47
2017-12-08T00:22:06.868Z,5.47
2017-12-08T00:22:11.107Z,5.48
2017-12-08T00:22:15.352Z,5.45
2017-12-08T00:22:19.709Z,5.44
2017-12-08T00:22:24.066Z,5.44
2017-12-08T00:22:28.414Z,5.47
2017-12-08T00:22:32.548Z,5.44
2017-12-08T00:22:36.794Z,5.48
2017-12-08T00:22:41.146Z,5.44
2017-12-08T00:22:45.379Z,5.48
2017-12-08T00:22:49.640Z,5.56
2017-12-08T00:22:54.002Z,5.44
2017-12-08T00:22:58.254Z,5.48
2017-12-08T00:23:02.590Z,5.52
2017-12-08T00:23:06.835Z,5.49
2017-12-08T00:23:11.076Z,5.47
2017-12-08T00:23:15.325Z,5.42
2017-12-08T00:23:19.575Z,5.49
2017-12-08T00:23:23.823Z,5.47
2017-12-08T00:23:28.042Z,5.48
2017-12-08T00:23:32.168Z,5.45
2017-12-08T00:23:36.517Z,5.44
2017-12-08T00:23:40.878Z,5.42
2017-12-08T00:23:45.019Z,5.42
2017-12-08T00:23:49.254Z,5.47
2017-12-08T00:23:53.489Z,5.52
2017-12-08T00:23:57.717Z,5.47
2017-12-08T00:24:02.130Z,5.45
2017-12-08T00:24:06.353Z,5.51
2017-12-08T00:24:10.546Z,5.44
2017-12-08T00:24:14.914Z,5.47
2017-12-08T00:24:19.269Z,5.52
2017-12-08T00:24:23.525Z,5.45
2017-12-08T00:24:27.875Z,5.49
2017-12-08T00:24:32.117Z,5.49
2017-12-08T00:24:36.373Z,5.47
2017-12-08T00:24:40.624Z,5.45
2017-12-08T00:24:44.959Z,5.44
2017-12-08T00:24:49.188Z,5.45
2017-12-08T00:24:53.334Z,5.52
2017-12-08T00:24:57.454Z,5.47
2017-12-08T00:25:01.950Z,5.47
2017-12-08T00:25:06.093Z,5.48
2017-12-08T00:25:10.448Z,5.52
2017-12-08T00:25:14.684Z,5.44
2017-12-08T00:25:18.937Z,5.48
2017-12-08T00:25:23.280Z,5.45
2017-12-08T00:25:27.618Z,5.47
2017-12-08T00:25:31.920Z,5.56
2017-12-08T00:25:36.053Z,5.44
2017-12-08T00:25:40.287Z,5.49
2017-12-08T00:25:44.512Z,5.47
2017-12-08T00:25:48.748Z,5.47
2017-12-08T00:25:52.881Z,5.42
2017-12-08T00:25:57.232Z,5.52
2017-12-08T00:26:01.470Z,5.48
2017-12-08T00:26:05.492Z,5.45
2017-12-08T00:26:09.531Z,5.45
2017-12-08T00:26:13.674Z,5.56
2017-12-08T00:26:18.028Z,5.52
2017-12-08T00:26:22.268Z,5.45
2017-12-08T00:26:26.620Z,5.52
2017-12-08T00:26:30.979Z,5.47
2017-12-08T00:26:35.341Z,5.52
2017-12-08T00:26:39.711Z,5.52
2017-12-08T00:26:43.862Z,5.52
2017-12-08T00:26:48.003Z,5.45
2017-12-08T00:26:52.338Z,5.45
2017-12-08T00:26:56.591Z,5.47
2017-12-08T00:27:00.739Z,5.49
2017-12-08T00:27:05.091Z,5.49
2017-12-08T00:27:09.351Z,5.49
2017-12-08T00:27:13.695Z,5.45
2017-12-08T00:27:17.950Z,5.44
2017-12-08T00:27:22.305Z,5.56
2017-12-08T00:27:26.669Z,5.42
2017-12-08T00:27:31.071Z,5.44
2017-12-08T00:27:35.302Z,5.47
2017-12-08T00:27:39.446Z,5.56
2017-12-08T00:27:43.776Z,5.45
2017-12-08T00:27:48.023Z,5.56
2017-12-08T00:27:52.278Z,5.49
2017-12-08T00:27:56.606Z,5.45
2017-12-08T00:28:00.855Z,5.47
2017-12-08T00:28:05.223Z,5.47
2017-12-08T00:28:09.462Z,5.52
2017-12-08T00:28:13.695Z,5.47
2017-12-08T00:28:18.033Z,5.49
2017-12-08T00:28:22.270Z,5.45
2017-12-08T00:28:26.514Z,5.47
2017-12-08T00:28:30.848Z,5.48
2017-12-08T00:28:35.096Z,5.52
2017-12-08T00:28:39.237Z,5.48
2017-12-08T00:28:43.378Z,5.51
2017-12-08T00:28:47.718Z,5.51
2017-12-08T00:28:51.864Z,5.52
2017-12-08T00:28:56.117Z,5.44
2017-12-08T00:29:00.243Z,5.48
2017-12-08T00:29:04.701Z,5.56
2017-12-08T00:29:09.057Z,5.42
2017-12-08T00:29:13.353Z,5.47
2017-12-08T00:29:17.699Z,5.45
2017-12-08T00:29:22.059Z,5.45
2017-12-08T00:29:26.421Z,5.48
2017-12-08T00:29:30.671Z,5.55
2017-12-08T00:29:35.010Z,5.44
2017-12-08T00:29:39.129Z,5.42
2017-12-08T00:29:43.146Z,5.38
2017-12-08T00:29:47.281Z,5.45
2017-12-08T00:29:51.529Z,5.44
2017-12-08T00:29:55.668Z,5.47
2017-12-08T00:30:00.037Z,5.41
2017-12-08T00:30:04.375Z,5.45
2017-12-08T00:30:08.654Z,5.49
2017-12-08T00:30:12.795Z,5.48
2017-12-08T00:30:17.028Z,5.49
2017-12-08T00:30:21.364Z,5.52
2017-12-08T00:30:25.724Z,5.48
2017-12-08T00:30:29.965Z,5.48
2017-12-08T00:30:34.100Z,5.4
2017-12-08T00:30:38.437Z,5.47
2017-12-08T00:30:42.686Z,5.49
2017-12-08T00:30:46.824Z,5.42
2017-12-08T00:30:51.071Z,5.48
2017-12-08T00:30:55.203Z,5.51
2017-12-08T00:30:59.248Z,5.47
2017-12-08T00:31:03.388Z,5.44
2017-12-08T00:31:07.513Z,5.47
2017-12-08T00:31:11.805Z,5.47
2017-12-08T00:31:15.942Z,5.41
2017-12-08T00:31:20.292Z,5.51
2017-12-08T00:31:24.641Z,5.41
2017-12-08T00:31:28.792Z,5.42
2017-12-08T00:31:33.026Z,5.47
2017-12-08T00:31:37.277Z,5.45
2017-12-08T00:31:41.636Z,5.49
2017-12-08T00:31:45.977Z,5.55
2017-12-08T00:31:50.217Z,5.51
2017-12-08T00:31:54.566Z,5.45
2017-12-08T00:31:58.917Z,5.42
2017-12-08T00:32:03.164Z,5.55
2017-12-08T00:32:07.406Z,5.47
2017-12-08T00:32:11.645Z,5.47
2017-12-08T00:32:15.889Z,5.52
2017-12-08T00:32:20.245Z,5.41
2017-12-08T00:32:24.591Z,5.45
2017-12-08T00:32:28.823Z,5.52
2017-12-08T00:32:33.166Z,5.49
2017-12-08T00:32:37.311Z,5.47
2017-12-08T00:32:41.426Z,5.55
2017-12-08T00:32:45.775Z,5.45
2017-12-08T00:32:49.999Z,5.44
2017-12-08T00:32:53.931Z,5.48
2017-12-08T00:32:58.164Z,5.42
2017-12-08T00:33:02.710Z,5.48
2017-12-08T00:33:06.953Z,5.51
2017-12-08T00:33:11.286Z,5.47
2017-12-08T00:33:15.759Z,5.52
2017-12-08T00:33:20.125Z,5.47
2017-12-08T00:33:24.208Z,5.51
2017-12-08T00:33:28.554Z,5.52
2017-12-08T00:33:32.800Z,5.47
2017-12-08T00:33:37.045Z,5.49
2017-12-08T00:33:41.180Z,5.59
2017-12-08T00:33:45.298Z,5.42
2017-12-08T00:33:49.526Z,5.41
2017-12-08T00:33:53.877Z,5.45
2017-12-08T00:33:58.116Z,5.47
2017-12-08T00:34:02.614Z,5.48
2017-12-08T00:34:06.749Z,5.55
2017-12-08T00:34:10.980Z,5.56
2017-12-08T00:34:15.125Z,5.42
2017-12-08T00:34:19.470Z,5.47
2017-12-08T00:34:23.829Z,5.52
2017-12-08T00:34:28.188Z,5.47
2017-12-08T00:34:32.539Z,5.48
2017-12-08T00:34:36.869Z,5.47
2017-12-08T00:34:40.902Z,5.44
2017-12-08T00:34:45.138Z,5.52
2017-12-08T00:34:49.391Z,5.49
2017-12-08T00:34:53.424Z,5.41
2017-12-08T00:34:57.542Z,5.42
2017-12-08T00:35:01.892Z,5.47
2017-12-08T00:35:06.133Z,5.45
2017-12-08T00:35:10.374Z,5.49
2017-12-08T00:35:14.624Z,5.45
2017-12-08T00:35:18.762Z,5.48
2017-12-08T00:35:23.167Z,5.49
2017-12-08T00:35:27.504Z,5.52
2017-12-08T00:35:31.531Z,5.49
2017-12-08T00:35:35.781Z,5.52
2017-12-08T00:35:40.016Z,5.48
2017-12-08T00:35:44.362Z,5.47
2017-12-08T00:35:48.500Z,5.44
2017-12-08T00:35:52.734Z,5.52
2017-12-08T00:35:56.939Z,5.44
2017-12-08T00:36:01.290Z,5.44
2017-12-08T00:36:05.684Z,5.51
2017-12-08T00:36:09.716Z,5.48
2017-12-08T00:36:13.756Z,5.51
2017-12-08T00:36:17.780Z,5.51
2017-12-08T00:36:22.011Z,5.45
2017-12-08T00:36:26.365Z,5.44
2017-12-08T00:36:30.676Z,5.49
2017-12-08T00:36:34.933Z,5.44
2017-12-08T00:36:39.279Z,5.44
2017-12-08T00:36:43.499Z,5.48
2017-12-08T00:36:47.528Z,5.47
2017-12-08T00:36:51.650Z,5.48
2017-12-08T00:36:55.767Z,5.48
2017-12-08T00:36:59.788Z,5.51
2017-12-08T00:37:04.069Z,5.45
2017-12-08T00:37:08.424Z,5.48
2017-12-08T00:37:12.681Z,5.49
2017-12-08T00:37:16.711Z,5.42
2017-12-08T00:37:21.061Z,5.47
2017-12-08T00:37:25.309Z,5.48
2017-12-08T00:37:29.539Z,5.52
2017-12-08T00:37:33.777Z,5.51
2017-12-08T00:37:37.802Z,5.48
2017-12-08T00:37:42.150Z,5.44
2017-12-08T00:37:46.383Z,5.42
2017-12-08T00:37:50.619Z,5.56
2017-12-08T00:37:54.955Z,5.49
2017-12-08T00:37:59.207Z,5.49
2017-12-08T00:38:03.790Z,5.51
2017-12-08T00:38:08.254Z,5.51
2017-12-08T00:38:12.496Z,5.45
2017-12-08T00:38:16.636Z,5.52
2017-12-08T00:38:20.986Z,5.45
2017-12-08T00:38:25.336Z,5.52
2017-12-08T00:38:29.591Z,5.55
2017-12-08T00:38:33.953Z,5.52
2017-12-08T00:38:38.324Z,5.66
2017-12-08T00:38:42.677Z,5.49
2017-12-08T00:38:46.909Z,5.52
2017-12-08T00:38:51.046Z,5.48
2017-12-08T00:38:55.380Z,5.51
2017-12-08T00:38:59.613Z,5.52
2017-12-08T00:39:03.960Z,5.47
2017-12-08T00:39:08.204Z,5.55
2017-12-08T00:39:12.345Z,5.56
2017-12-08T00:39:16.168Z,5.6
2017-12-08T00:39:20.314Z,5.47
2017-12-08T00:39:24.659Z,5.52
2017-12-08T00:39:28.897Z,5.52
2017-12-08T00:39:33.142Z,5.47
2017-12-08T00:39:37.265Z,5.52
2017-12-08T00:39:41.507Z,5.49
2017-12-08T00:39:45.636Z,5.52
2017-12-08T00:39:49.872Z,5.56
2017-12-08T00:39:54.012Z,5.49
2017-12-08T00:39:58.359Z,5.52
2017-12-08T00:40:02.711Z,5.6
2017-12-08T00:40:06.751Z,5.49
2017-12-08T00:40:10.881Z,5.48
2017-12-08T00:40:15.243Z,5.55
2017-12-08T00:40:19.594Z,5.48
2017-12-08T00:40:23.734Z,5.55
2017-12-08T00:40:27.972Z,5.55
2017-12-08T00:40:32.342Z,5.59
2017-12-08T00:40:36.579Z,5.58
2017-12-08T00:40:40.871Z,5.49
2017-12-08T00:40:45.015Z,5.59
2017-12-08T00:40:49.043Z,5.62
2017-12-08T00:40:53.292Z,5.52
2017-12-08T00:40:57.547Z,5.51
2017-12-08T00:41:01.999Z,5.55
2017-12-08T00:41:06.140Z,5.56
2017-12-08T00:41:10.493Z,5.47
2017-12-08T00:41:14.730Z,5.52
2017-12-08T00:41:18.983Z,5.56
2017-12-08T00:41:23.230Z,5.6
2017-12-08T00:41:27.251Z,5.51
2017-12-08T00:41:31.382Z,5.56
2017-12-08T00:41:35.503Z,5.55
2017-12-08T00:41:39.842Z,5.52
2017-12-08T00:41:44.078Z,5.59
2017-12-08T00:41:48.325Z,5.49
2017-12-08T00:41:52.677Z,5.58
2017-12-08T00:41:56.919Z,5.52
2017-12-08T00:42:01.171Z,5.59
2017-12-08T00:42:05.520Z,5.52
2017-12-08T00:42:09.766Z,5.59
2017-12-08T00:42:14.118Z,5.6
2017-12-08T00:42:18.464Z,5.62
2017-12-08T00:42:22.716Z,5.58
2017-12-08T00:42:26.782Z,5.58
2017-12-08T00:42:31.017Z,5.55
2017-12-08T00:42:35.257Z,5.59
2017-12-08T00:42:39.486Z,5.59
2017-12-08T00:42:43.514Z,5.55
2017-12-08T00:42:47.639Z,5.52
2017-12-08T00:42:51.771Z,5.51
2017-12-08T00:42:55.781Z,5.56
2017-12-08T00:42:59.714Z,5.55
2017-12-08T00:43:03.946Z,5.63
2017-12-08T00:43:08.169Z,5.52
2017-12-08T00:43:12.517Z,5.59
2017-12-08T00:43:16.764Z,5.62
2017-12-08T00:43:21.125Z,5.63
2017-12-08T00:43:25.468Z,5.62
2017-12-08T00:43:29.717Z,5.55
2017-12-08T00:43:34.081Z,5.62
2017-12-08T00:43:38.416Z,5.59
2017-12-08T00:43:42.659Z,5.6
2017-12-08T00:43:47.009Z,5.56
2017-12-08T00:43:51.251Z,5.56
2017-12-08T00:43:55.593Z,5.58
2017-12-08T00:43:59.941Z,5.6
2017-12-08T00:44:04.264Z,5.62
2017-12-08T00:44:08.399Z,5.56
2017-12-08T00:44:12.660Z,5.6
2017-12-08T00:44:16.908Z,5.58
2017-12-08T00:44:21.258Z,5.62
2017-12-08T00:44:25.286Z,5.56
2017-12-08T00:44:29.431Z,5.65
2017-12-08T00:44:33.681Z,5.59
2017-12-08T00:44:38.049Z,5.56
2017-12-08T00:44:42.290Z,5.62
2017-12-08T00:44:46.629Z,5.6
2017-12-08T00:44:50.563Z,5.62
2017-12-08T00:44:54.926Z,5.6
2017-12-08T00:44:59.061Z,5.62
2017-12-08T00:45:03.499Z,5.49
2017-12-08T00:45:07.643Z,5.63
2017-12-08T00:45:11.659Z,5.48
2017-12-08T00:45:15.798Z,5.59
2017-12-08T00:45:20.153Z,5.62
2017-12-08T00:45:24.510Z,5.56
2017-12-08T00:45:28.758Z,5.56
2017-12-08T00:45:33.117Z,5.6
2017-12-08T00:45:37.139Z,5.63
2017-12-08T00:45:41.378Z,5.63
2017-12-08T00:45:45.732Z,5.63
2017-12-08T00:45:49.966Z,5.63
2017-12-08T00:45:54.110Z,5.6
2017-12-08T00:45:58.338Z,5.58
2017-12-08T00:46:02.698Z,5.62
2017-12-08T00:46:06.934Z,5.6
2017-12-08T00:46:11.063Z,5.6
2017-12-08T00:46:15.466Z,5.58
2017-12-08T00:46:19.816Z,5.56
2017-12-08T00:46:24.193Z,5.55
2017-12-08T00:46:28.222Z,5.56
2017-12-08T00:46:32.633Z,5.55
2017-12-08T00:46:36.784Z,5.62
2017-12-08T00:46:41.141Z,5.6
2017-12-08T00:46:45.375Z,5.67
2017-12-08T00:46:49.626Z,5.59
2017-12-08T00:46:53.987Z,5.59
2017-12-08T00:46:58.123Z,5.62
2017-12-08T00:47:02.566Z,5.62
2017-12-08T00:47:06.805Z,5.58
2017-12-08T00:47:11.155Z,5.59
2017-12-08T00:47:15.499Z,5.6
2017-12-08T00:47:19.637Z,5.6
2017-12-08T00:47:23.980Z,5.62
2017-12-08T00:47:28.009Z,5.62
2017-12-08T00:47:32.340Z,5.62
2017-12-08T00:47:36.560Z,5.6
2017-12-08T00:47:40.803Z,5.62
2017-12-08T00:47:45.146Z,5.55
2017-12-08T00:47:49.379Z,5.63
2017-12-08T00:47:53.646Z,5.62
2017-12-08T00:47:57.883Z,5.59
2017-12-08T00:48:02.474Z,5.6
2017-12-08T00:48:06.824Z,5.65
2017-12-08T00:48:10.959Z,5.63
2017-12-08T00:48:15.309Z,5.66
2017-12-08T00:48:19.442Z,5.62
2017-12-08T00:48:23.700Z,5.62
2017-12-08T00:48:27.988Z,5.58
2017-12-08T00:48:32.354Z,5.63
2017-12-08T00:48:36.614Z,5.58
2017-12-08T00:48:40.740Z,5.66
2017-12-08T00:48:44.990Z,5.6
2017-12-08T00:48:49.223Z,5.65
2017-12-08T00:48:53.569Z,5.58
2017-12-08T00:48:57.914Z,5.66
2017-12-08T00:49:02.199Z,5.6
2017-12-08T00:49:06.249Z,5.66
2017-12-08T00:49:10.608Z,5.66
2017-12-08T00:49:14.861Z,5.66
2017-12-08T00:49:19.102Z,5.66
2017-12-08T00:49:23.251Z,5.63
2017-12-08T00:49:27.601Z,5.62
2017-12-08T00:49:31.951Z,5.62
2017-12-08T00:49:36.361Z,5.59
2017-12-08T00:49:40.712Z,5.63
2017-12-08T00:49:45.068Z,5.62
2017-12-08T00:49:49.417Z,5.65
2017-12-08T00:49:53.782Z,5.69
2017-12-08T00:49:57.942Z,5.73
2017-12-08T00:50:02.190Z,5.65
2017-12-08T00:50:06.275Z,5.69
2017-12-08T00:50:10.307Z,5.65
2017-12-08T00:50:14.444Z,5.73
2017-12-08T00:50:18.590Z,5.7
2017-12-08T00:50:22.992Z,5.62
2017-12-08T00:50:27.342Z,5.73
2017-12-08T00:50:31.675Z,5.74
2017-12-08T00:50:36.035Z,5.7
2017-12-08T00:50:40.174Z,5.7
2017-12-08T00:50:44.516Z,5.67
2017-12-08T00:50:48.862Z,5.66
2017-12-08T00:50:53.263Z,5.77
2017-12-08T00:50:57.301Z,5.66
2017-12-08T00:51:01.709Z,5.69
2017-12-08T00:51:05.524Z,5.75
2017-12-08T00:51:09.779Z,5.73
2017-12-08T00:51:14.022Z,5.81
2017-12-08T00:51:18.369Z,5.7
2017-12-08T00:51:22.734Z,5.74
2017-12-08T00:51:26.961Z,5.73
2017-12-08T00:51:31.268Z,5.73
2017-12-08T00:51:35.501Z,5.75
2017-12-08T00:51:39.739Z,5.73
2017-12-08T00:51:43.773Z,5.7
2017-12-08T00:51:47.858Z,5.74
2017-12-08T00:51:52.055Z,5.73
2017-12-08T00:51:56.292Z,5.77
2017-12-08T00:52:00.430Z,5.7
2017-12-08T00:52:05.064Z,5.74
2017-12-08T00:52:09.197Z,5.75
2017-12-08T00:52:13.332Z,5.69
2017-12-08T00:52:17.657Z,5.78
2017-12-08T00:52:21.903Z,5.77
2017-12-08T00:52:26.264Z,5.73
2017-12-08T00:52:30.621Z,5.78
2017-12-08T00:52:34.866Z,5.8
2017-12-08T00:52:39.106Z,5.78
2017-12-08T00:52:43.480Z,5.77
2017-12-08T00:52:47.822Z,5.74
2017-12-08T00:52:51.955Z,5.7
2017-12-08T00:52:56.219Z,5.78
2017-12-08T00:53:00.347Z,5.78
2017-12-08T00:53:04.487Z,5.8
2017-12-08T00:53:08.618Z,5.75
2017-12-08T00:53:12.756Z,5.75
2017-12-08T00:53:16.907Z,5.81
2017-12-08T00:53:21.269Z,5.78
2017-12-08T00:53:25.508Z,5.74
2017-12-08T00:53:29.742Z,5.77
2017-12-08T00:53:34.088Z,5.74
2017-12-08T00:53:38.111Z,5.77
2017-12-08T00:53:42.149Z,5.84
2017-12-08T00:53:46.505Z,5.77
2017-12-08T00:53:50.746Z,5.7
2017-12-08T00:53:55.085Z,5.74
2017-12-08T00:53:59.440Z,5.74
2017-12-08T00:54:03.940Z,5.8
2017-12-08T00:54:08.179Z,5.77
2017-12-08T00:54:12.310Z,5.81
2017-12-08T00:54:16.544Z,5.73
2017-12-08T00:54:20.806Z,5.78
2017-12-08T00:54:25.045Z,5.74
2017-12-08T00:54:29.402Z,5.75
2017-12-08T00:54:33.811Z,5.77
2017-12-08T00:54:37.955Z,5.77
2017-12-08T00:54:42.296Z,5.78
2017-12-08T00:54:46.520Z,5.8
2017-12-08T00:54:50.819Z,5.77
2017-12-08T00:54:54.839Z,5.75
2017-12-08T00:54:58.865Z,5.74
2017-12-08T00:55:03.250Z,5.73
2017-12-08T00:55:07.594Z,5.74
2017-12-08T00:55:11.833Z,5.83
2017-12-08T00:55:16.075Z,5.73
2017-12-08T00:55:20.326Z,5.75
2017-12-08T00:55:24.675Z,5.78
2017-12-08T00:55:29.023Z,5.77
2017-12-08T00:55:33.260Z,5.78
2017-12-08T00:55:37.517Z,5.77
2017-12-08T00:55:41.871Z,5.75
2017-12-08T00:55:46.098Z,5.74
2017-12-08T00:55:50.236Z,5.8
2017-12-08T00:55:54.478Z,5.8
2017-12-08T00:55:58.614Z,5.77
2017-12-08T00:56:02.954Z,5.81
2017-12-08T00:56:07.205Z,5.75
2017-12-08T00:56:11.229Z,5.8
2017-12-08T00:56:15.472Z,5.83
2017-12-08T00:56:19.701Z,5.84
2017-12-08T00:56:24.043Z,5.83
2017-12-08T00:56:28.392Z,5.77
2017-12-08T00:56:32.745Z,5.83
2017-12-08T00:56:36.996Z,5.77
2017-12-08T00:56:41.245Z,5.8
2017-12-08T00:56:45.596Z,5.78
2017-12-08T00:56:49.941Z,5.77
2017-12-08T00:56:54.185Z,5.87
2017-12-08T00:56:58.432Z,5.73
2017-12-08T00:57:02.767Z,5.8
2017-12-08T00:57:06.913Z,5.77
2017-12-08T00:57:11.263Z,5.77
2017-12-08T00:57:15.652Z,5.85
2017-12-08T00:57:20.046Z,5.81